Time;durP1;ratioP1;P1;durP2;ratioP2;P2;SDS_P1;SDS_P2;PMS_P1;PMS_P2;Temp;Humidity;BMP_temperature;BMP_pressure;BME280_temperature;BME280_humidity;BME280_pressure;Samples;Min_cycle;Max_cycle;Signal;HPM_P1;HPM_P2
2023/01/21 00:01:51;;;;;;;52.30;18.85;;;;;;;-1.95;100.00;102450.31;5031864;28;20491;-73
2023/01/21 00:04:16;;;;;;;53.35;18.83;;;;;;;-1.97;100.00;102452.06;5029279;28;20040;-73
2023/01/21 00:06:42;;;;;;;43.03;19.98;;;;;;;-2.04;100.00;102465.38;5032812;28;20022;-73
2023/01/21 00:09:07;;;;;;;52.85;19.65;;;;;;;-2.08;100.00;102469.78;5029045;28;20483;-74
2023/01/21 00:11:33;;;;;;;51.65;19.33;;;;;;;-2.14;100.00;102472.41;5029205;28;20487;-73
2023/01/21 00:13:58;;;;;;;48.90;18.75;;;;;;;-2.15;100.00;102482.16;5028858;28;20026;-73
2023/01/21 00:16:23;;;;;;;48.05;20.42;;;;;;;-2.17;100.00;102478.59;5028651;28;20033;-73
2023/01/21 00:18:49;;;;;;;51.83;18.88;;;;;;;-2.17;100.00;102481.28;5029267;28;20033;-72
2023/01/21 00:21:14;;;;;;;46.45;19.50;;;;;;;-2.17;100.00;102483.06;5028955;28;20029;-74
2023/01/21 00:23:40;;;;;;;52.10;20.38;;;;;;;-2.20;100.00;102489.25;5028293;28;20496;-73
2023/01/21 00:26:07;;;;;;;53.50;20.50;;;;;;;-2.20;100.00;102491.91;5027501;28;20101;-73
2023/01/21 00:28:34;;;;;;;47.10;18.63;;;;;;;-2.21;100.00;102475.91;5037267;28;20120;-73
2023/01/21 00:31:01;;;;;;;51.05;18.95;;;;;;;-2.23;100.00;102488.34;5040286;28;20505;-72
2023/01/21 00:33:28;;;;;;;51.92;19.02;;;;;;;-2.23;100.00;102491.91;5027112;28;20030;-73
2023/01/21 00:35:58;;;;;;;44.47;18.15;;;;;;;-2.23;100.00;102499.91;5027945;28;20056;-72
2023/01/21 00:38:23;;;;;;;51.15;21.30;;;;;;;-2.22;100.00;102504.34;5028700;28;20045;-73
2023/01/21 00:40:49;;;;;;;47.40;18.65;;;;;;;-2.24;100.00;102498.09;5027597;28;20114;-73
2023/01/21 00:43:14;;;;;;;48.47;18.95;;;;;;;-2.23;100.00;102499.91;5028448;28;20050;-74
2023/01/21 00:45:40;;;;;;;48.03;20.38;;;;;;;-2.22;100.00;102506.13;5028699;28;20112;-75
2023/01/21 00:48:05;;;;;;;51.80;20.27;;;;;;;-2.26;100.00;102499.88;5028322;28;20541;-73
2023/01/21 00:50:31;;;;;;;52.67;21.13;;;;;;;-2.27;100.00;102508.75;5027935;28;20043;-73
2023/01/21 00:52:56;;;;;;;48.53;20.55;;;;;;;-2.33;100.00;102503.38;5028387;28;20082;-73
2023/01/21 00:55:21;;;;;;;39.33;16.05;;;;;;;-2.31;100.00;102520.28;5028579;28;20057;-73
2023/01/21 00:57:47;;;;;;;54.20;21.65;;;;;;;-2.40;100.00;102510.44;5027458;28;20033;-73
2023/01/21 01:00:13;;;;;;;59.58;21.95;;;;;;;-2.31;100.00;102536.25;5034427;28;20048;-73
2023/01/21 01:02:39;;;;;;;47.33;19.58;;;;;;;-2.29;100.00;102538.94;5038104;28;20037;-73
2023/01/21 01:05:07;;;;;;;46.10;19.63;;;;;;;-2.29;100.00;102531.81;5026794;28;20017;-73
2023/01/21 01:07:33;;;;;;;53.38;19.38;;;;;;;-2.30;100.00;102535.38;5026610;28;20060;-73
2023/01/21 01:09:58;;;;;;;64.43;23.13;;;;;;;-2.28;100.00;102549.63;5028008;28;20068;-73
2023/01/21 01:12:23;;;;;;;55.28;20.73;;;;;;;-2.31;100.00;102560.25;5026905;28;20037;-75
2023/01/21 01:14:49;;;;;;;56.08;21.33;;;;;;;-2.36;100.00;102557.53;5034195;28;20116;-73
2023/01/21 01:17:14;;;;;;;54.45;21.58;;;;;;;-2.35;100.00;102567.31;5029381;28;20492;-73
2023/01/21 01:19:39;;;;;;;58.15;21.45;;;;;;;-2.36;100.00;102567.31;5028263;28;20477;-75
2023/01/21 01:22:05;;;;;;;56.15;21.10;;;;;;;-2.40;100.00;102577.06;5026365;28;20056;-72
2023/01/21 01:24:30;;;;;;;64.93;22.70;;;;;;;-2.38;100.00;102580.66;5022963;28;20166;-75
2023/01/21 01:26:55;;;;;;;57.28;21.08;;;;;;;-2.41;100.00;102588.59;5043386;28;20032;-73
2023/01/21 01:29:21;;;;;;;59.92;22.88;;;;;;;-2.39;100.00;102593.94;5027994;28;20216;-72
2023/01/21 01:31:46;;;;;;;58.83;23.40;;;;;;;-2.39;100.00;102593.94;5036409;28;20433;-74
2023/01/21 01:34:11;;;;;;;55.67;22.60;;;;;;;-2.41;100.00;102593.03;5028264;28;20482;-73
2023/01/21 01:36:37;;;;;;;62.90;24.80;;;;;;;-2.41;100.00;102604.59;5009929;28;20393;-73
2023/01/21 01:39:03;;;;;;;59.95;23.13;;;;;;;-2.39;100.00;102605.47;5026715;28;20041;-72
2023/01/21 01:41:31;;;;;;;71.32;22.38;;;;;;;-2.42;100.00;102605.47;5027657;28;20066;-72
2023/01/21 01:44:05;;;;;;;60.72;24.80;;;;;;;-2.42;100.00;102616.13;5027642;28;20473;-73
2023/01/21 01:46:33;;;;;;;63.20;22.50;;;;;;;-2.44;100.00;102617.88;5026658;28;20029;-72
2023/01/21 01:49:12;;;;;;;70.82;24.52;;;;;;;-2.42;100.00;102620.56;5027461;28;20029;-73
2023/01/21 01:51:47;;;;;;;69.05;23.85;;;;;;;-2.42;100.00;102624.13;5026211;28;20133;-73
2023/01/21 01:54:17;;;;;;;68.40;26.40;;;;;;;-2.44;100.00;102623.19;5028540;28;20444;-72
2023/01/21 01:56:45;;;;;;;68.10;26.58;;;;;;;-2.45;100.00;102625.84;5034740;28;20127;-73
2023/01/21 01:59:11;;;;;;;73.53;25.80;;;;;;;-2.49;100.00;102632.91;5028243;28;20408;-72
2023/01/21 02:01:36;;;;;;;71.78;25.38;;;;;;;-2.51;100.00;102632.03;5031175;28;20029;-72
2023/01/21 02:04:07;;;;;;;71.93;26.77;;;;;;;-2.53;100.00;102639.09;5031697;28;20072;-72
2023/01/21 02:06:33;;;;;;;71.03;25.92;;;;;;;-2.54;100.00;102641.75;5031371;28;20036;-72
2023/01/21 02:08:58;;;;;;;71.57;28.40;;;;;;;-2.58;100.00;102643.47;5030340;28;20037;-75
2023/01/21 02:11:24;;;;;;;65.55;26.80;;;;;;;-2.59;100.00;102647.03;5031550;28;20045;-72
2023/01/21 02:13:53;;;;;;;76.00;28.05;;;;;;;-2.64;100.00;102646.97;5030866;28;20076;-72
2023/01/21 02:16:38;;;;;;;68.97;25.88;;;;;;;-2.66;100.00;102656.75;5040102;28;20036;-76
2023/01/21 02:19:41;;;;;;;70.43;27.05;;;;;;;-2.67;100.00;102659.38;5030092;28;20433;-72
2023/01/21 02:22:15;;;;;;;63.53;26.87;;;;;;;-2.73;100.00;102659.31;5031163;28;20041;-72
2023/01/21 02:25:14;;;;;;;82.10;29.45;;;;;;;-2.72;100.00;102669.06;5031557;28;20041;-73
2023/01/21 02:28:20;;;;;;;74.75;28.77;;;;;;;-2.73;100.00;102673.50;5031406;28;20068;-74
2023/01/21 02:31:07;;;;;;;75.93;30.25;;;;;;;-2.71;100.00;102671.75;5035589;28;20033;-74
2023/01/21 02:34:00;;;;;;;73.57;29.30;;;;;;;-2.72;100.00;102669.97;5032737;28;20045;-74
2023/01/21 02:36:48;;;;;;;69.80;28.90;;;;;;;-2.74;100.00;102674.41;5029391;28;20040;-72
2023/01/21 02:39:47;;;;;;;82.78;29.77;;;;;;;-2.75;100.00;102685.00;5029912;28;20132;-75
2023/01/21 02:42:27;;;;;;;80.43;29.75;;;;;;;-2.81;100.00;102683.16;5029623;28;20113;-73
2023/01/21 02:45:06;;;;;;;68.75;27.42;;;;;;;-2.88;100.00;102684.88;5030914;28;20548;-71
2023/01/21 02:47:55;;;;;;;68.38;26.00;;;;;;;-2.88;100.00;102682.22;5045023;28;20039;-72
2023/01/21 02:50:27;;;;;;;74.93;27.23;;;;;;;-2.90;100.00;102683.94;5030643;28;20068;-72
2023/01/21 02:53:02;;;;;;;76.18;26.83;;;;;;;-2.89;100.00;102696.41;5030057;28;20113;-71
2023/01/21 02:55:37;;;;;;;68.40;27.23;;;;;;;-2.87;100.00;102702.63;5030705;28;20041;-73
2023/01/21 02:58:13;;;;;;;72.82;27.08;;;;;;;-2.88;100.00;102699.97;5030802;28;20172;-71
2023/01/21 03:00:53;;;;;;;74.45;25.70;;;;;;;-2.88;100.00;102703.53;5034003;28;20488;-71
2023/01/21 03:03:27;;;;;;;62.75;23.10;;;;;;;-2.86;100.00;102707.06;5034033;28;20509;-72
2023/01/21 03:06:05;;;;;;;71.82;27.45;;;;;;;-2.86;100.00;102704.41;5028236;28;20180;-71
2023/01/21 03:08:43;;;;;;;63.78;24.48;;;;;;;-2.87;100.00;102713.28;5030800;28;20090;-72
2023/01/21 03:11:15;;;;;;;72.30;23.65;;;;;;;-2.89;100.00;102712.38;5030686;28;20029;-71
2023/01/21 03:16:56;;;;;;;62.55;24.42;;;;;;;-2.92;100.00;102712.34;5039984;28;20099;-73
2023/01/21 03:19:37;;;;;;;66.00;25.00;;;;;;;-2.94;100.00;102713.16;5030059;28;20037;-72
2023/01/21 03:22:08;;;;;;;76.65;25.50;;;;;;;-2.97;100.00;102715.81;5030246;28;20037;-72
2023/01/21 03:24:38;;;;;;;57.72;21.52;;;;;;;-3.01;100.00;102712.22;5029115;28;20041;-71
2023/01/21 03:27:05;;;;;;;58.58;21.98;;;;;;;-2.97;100.00;102721.16;5029975;28;20064;-72
2023/01/21 03:29:33;;;;;;;71.07;24.48;;;;;;;-3.04;100.00;102709.50;5029948;28;20480;-74
2023/01/21 03:32:03;;;;;;;67.28;23.50;;;;;;;-3.00;100.00;102719.31;5028502;28;20041;-72
2023/01/21 03:34:34;;;;;;;69.13;24.48;;;;;;;-3.00;100.00;102727.31;5029804;28;20052;-72
2023/01/21 03:37:18;;;;;;;64.53;22.73;;;;;;;-3.02;100.00;102728.19;5028568;28;20048;-72
2023/01/21 03:39:56;;;;;;;61.97;23.58;;;;;;;-3.05;100.00;102731.69;5029152;28;20037;-76
2023/01/21 03:42:22;;;;;;;63.85;21.48;;;;;;;-3.06;100.00;102735.22;5028520;28;20069;-75
2023/01/21 03:44:47;;;;;;;60.90;23.92;;;;;;;-3.09;100.00;102736.06;5030002;28;20041;-72
2023/01/21 03:47:30;;;;;;;62.90;22.83;;;;;;;-3.08;100.00;102744.94;5028606;28;20507;-74
2023/01/21 03:50:06;;;;;;;62.42;22.70;;;;;;;-3.11;100.00;102743.13;5029818;28;20064;-72
2023/01/21 03:52:32;;;;;;;65.22;23.60;;;;;;;-3.11;100.00;102744.91;5029107;28;20037;-72
2023/01/21 03:54:58;;;;;;;68.72;22.85;;;;;;;-3.13;100.00;102749.28;5029894;28;20035;-74
2023/01/21 03:57:23;;;;;;;71.40;24.38;;;;;;;-3.14;100.00;102750.19;5029765;28;20137;-72
2023/01/21 03:59:48;;;;;;;66.95;22.75;;;;;;;-3.16;100.00;102758.16;5029027;28;20076;-72
2023/01/21 04:02:18;;;;;;;61.40;22.25;;;;;;;-3.16;100.00;102763.47;5029644;28;20115;-74
2023/01/21 04:04:45;;;;;;;60.70;21.67;;;;;;;-3.19;100.00;102754.53;5028129;28;20040;-73
2023/01/21 04:07:11;;;;;;;69.40;23.05;;;;;;;-3.18;100.00;102757.22;5014686;28;20476;-72
2023/01/21 04:09:37;;;;;;;62.60;23.52;;;;;;;-3.16;100.00;102768.78;5049465;28;20037;-72
2023/01/21 04:12:02;;;;;;;62.05;22.27;;;;;;;-3.19;100.00;102758.09;5049159;28;20496;-72
2023/01/21 04:14:28;;;;;;;61.25;20.92;;;;;;;-3.20;100.00;102763.41;5047709;28;20041;-73
2023/01/21 04:16:53;;;;;;;59.63;20.42;;;;;;;-3.21;100.00;102765.19;5035113;28;20492;-74
2023/01/21 04:19:18;;;;;;;60.95;20.85;;;;;;;-3.22;100.00;102765.13;5027782;28;20041;-74
2023/01/21 04:21:44;;;;;;;68.70;22.90;;;;;;;-3.23;100.00;102780.19;5028794;28;20037;-74
2023/01/21 04:24:09;;;;;;;62.58;23.95;;;;;;;-3.25;100.00;102775.75;5029100;28;20041;-74
2023/01/21 04:26:35;;;;;;;65.63;22.70;;;;;;;-3.25;100.00;102779.31;5042598;28;20017;-72
2023/01/21 04:29:00;;;;;;;69.53;23.08;;;;;;;-3.26;100.00;102788.16;5048787;28;20066;-73
2023/01/21 04:31:25;;;;;;;66.70;22.15;;;;;;;-3.27;100.00;102780.13;5038919;28;20030;-72
2023/01/21 04:33:51;;;;;;;59.15;21.48;;;;;;;-3.30;100.00;102777.44;5032119;28;20571;-73
2023/01/21 04:36:16;;;;;;;58.22;20.30;;;;;;;-3.31;100.00;102781.88;5029002;28;20581;-75
2023/01/21 04:38:41;;;;;;;67.72;21.25;;;;;;;-3.35;100.00;102780.94;5029633;28;20451;-73
2023/01/21 04:41:07;;;;;;;59.67;20.77;;;;;;;-3.36;100.00;102775.56;5029198;28;20040;-72
2023/01/21 04:43:32;;;;;;;55.92;21.00;;;;;;;-3.37;100.00;102784.41;5029089;28;20071;-72
2023/01/21 04:45:57;;;;;;;66.38;23.55;;;;;;;-3.38;100.00;102785.28;5033928;28;20123;-72
2023/01/21 04:48:23;;;;;;;64.00;21.00;;;;;;;-3.40;100.00;102785.28;5033239;28;20061;-72
2023/01/21 04:50:48;;;;;;;59.33;21.98;;;;;;;-3.40;100.00;102792.38;5028200;28;20048;-72
2023/01/21 04:53:13;;;;;;;57.47;18.77;;;;;;;-3.40;100.00;102797.69;5038691;28;20040;-76
2023/01/21 04:55:39;;;;;;;64.57;20.48;;;;;;;-3.42;100.00;102797.66;5049129;28;20432;-73
2023/01/21 04:58:04;;;;;;;66.63;21.30;;;;;;;-3.44;100.00;102799.41;5048900;28;20448;-72
2023/01/21 05:00:29;;;;;;;60.67;20.75;;;;;;;-3.46;100.00;102803.78;5030665;28;20038;-72
2023/01/21 05:02:55;;;;;;;56.53;21.55;;;;;;;-3.47;100.00;102811.75;5037176;28;20036;-72
2023/01/21 05:05:20;;;;;;;58.47;21.98;;;;;;;-3.48;100.00;102808.19;5028198;28;20057;-73
2023/01/21 05:07:46;;;;;;;68.32;22.30;;;;;;;-3.51;100.00;102817.88;5028430;28;20029;-72
2023/01/21 05:10:16;;;;;;;59.55;20.73;;;;;;;-3.52;100.00;102819.66;5028758;28;20029;-72
2023/01/21 05:12:41;;;;;;;64.90;22.05;;;;;;;-3.55;100.00;102819.56;5027061;28;20121;-73
2023/01/21 05:15:07;;;;;;;69.45;21.85;;;;;;;-3.57;100.00;102820.44;5039069;28;20469;-73
2023/01/21 05:17:33;;;;;;;64.47;21.40;;;;;;;-3.63;100.00;102814.16;5028041;28;20416;-71
2023/01/21 05:19:58;;;;;;;58.55;20.33;;;;;;;-3.58;100.00;102821.31;5028373;28;20477;-72
2023/01/21 05:22:23;;;;;;;61.85;21.23;;;;;;;-3.63;100.00;102819.47;5026703;28;20350;-73
2023/01/21 05:24:49;;;;;;;59.55;20.10;;;;;;;-3.64;100.00;102816.75;5027031;28;20404;-72
2023/01/21 05:27:14;;;;;;;63.42;23.70;;;;;;;-3.60;100.00;102832.81;5027151;28;20373;-72
2023/01/21 05:29:40;;;;;;;61.58;21.70;;;;;;;-3.63;100.00;102824.78;5031365;28;20401;-73
2023/01/21 05:32:05;;;;;;;62.97;22.50;;;;;;;-3.63;100.00;102829.22;5027882;28;20033;-72
2023/01/21 05:34:31;;;;;;;59.78;20.65;;;;;;;-3.63;100.00;102834.53;5027871;28;20489;-72
2023/01/21 05:36:56;;;;;;;53.55;21.23;;;;;;;-3.66;100.00;102838.03;5031883;28;20033;-72
2023/01/21 05:39:21;;;;;;;60.67;19.15;;;;;;;-3.68;100.00;102842.44;5046770;28;20048;-71
2023/01/21 05:41:47;;;;;;;58.05;20.25;;;;;;;-3.68;100.00;102846.84;5047985;28;20494;-72
2023/01/21 05:44:12;;;;;;;58.53;19.23;;;;;;;-3.67;100.00;102853.97;5048985;28;20438;-72
2023/01/21 05:46:37;;;;;;;57.22;20.35;;;;;;;-3.66;100.00;102853.09;5036502;28;20053;-72
2023/01/21 05:49:03;;;;;;;68.80;20.58;;;;;;;-3.65;100.00;102852.22;5027670;28;20108;-72
2023/01/21 05:51:28;;;;;;;63.08;21.88;;;;;;;-3.69;100.00;102848.59;5027450;28;20048;-74
2023/01/21 05:53:54;;;;;;;57.80;20.00;;;;;;;-3.67;100.00;102849.53;5026645;28;20096;-73
2023/01/21 05:56:19;;;;;;;62.80;22.25;;;;;;;-3.67;100.00;102848.63;5026906;28;20037;-73
2023/01/21 05:58:45;;;;;;;61.20;22.15;;;;;;;-3.67;100.00;102853.97;5027886;28;20037;-73
2023/01/21 06:01:10;;;;;;;54.85;20.13;;;;;;;-3.65;100.00;102857.53;5034861;28;20416;-73
2023/01/21 06:03:36;;;;;;;65.95;20.65;;;;;;;-3.71;100.00;102860.09;5031066;28;20679;-72
2023/01/21 06:06:02;;;;;;;58.75;21.35;;;;;;;-3.72;100.00;102861.84;5026941;28;20489;-72
2023/01/21 06:08:28;;;;;;;65.05;22.25;;;;;;;-3.77;100.00;102867.97;5027928;28;20107;-72
2023/01/21 06:10:56;;;;;;;62.33;22.15;;;;;;;-3.81;100.00;102871.41;5028879;28;20463;-72
2023/01/21 06:13:22;;;;;;;68.43;22.90;;;;;;;-3.85;100.00;102873.13;5046595;28;20443;-72
2023/01/21 06:15:47;;;;;;;59.38;20.35;;;;;;;-3.88;100.00;102881.03;5042992;28;20061;-72
2023/01/21 06:18:13;;;;;;;63.15;20.33;;;;;;;-3.89;100.00;102881.88;5028295;28;20413;-72
2023/01/21 06:20:38;;;;;;;56.13;18.80;;;;;;;-3.89;100.00;102873.91;5026930;28;20120;-72
2023/01/21 06:23:05;;;;;;;59.63;20.50;;;;;;;-3.89;100.00;102871.25;5026521;28;20041;-76
2023/01/21 06:25:31;;;;;;;63.00;19.77;;;;;;;-3.85;100.00;102874.00;5027628;28;20033;-74
2023/01/21 06:27:56;;;;;;;60.33;21.33;;;;;;;-3.85;100.00;102887.31;5027576;28;20049;-72
2023/01/21 06:30:23;;;;;;;66.65;21.55;;;;;;;-3.87;100.00;102882.81;5027464;28;20088;-72
2023/01/21 06:32:48;;;;;;;61.50;21.25;;;;;;;-3.89;100.00;102877.47;5036484;28;20392;-72
2023/01/21 06:35:14;;;;;;;64.30;21.45;;;;;;;-3.89;100.00;102896.06;5040398;28;20029;-73
2023/01/21 06:37:39;;;;;;;57.50;19.70;;;;;;;-3.93;100.00;102891.56;5027439;28;20328;-72
2023/01/21 06:40:06;;;;;;;65.90;20.52;;;;;;;-3.96;100.00;102896.84;5029841;28;20506;-73
2023/01/21 06:42:32;;;;;;;71.68;22.42;;;;;;;-3.99;100.00;102899.41;5047300;28;20051;-72
2023/01/21 06:44:57;;;;;;;61.10;21.17;;;;;;;-4.00;100.00;102910.03;5047267;28;20032;-73
2023/01/21 06:47:23;;;;;;;63.60;21.85;;;;;;;-4.04;100.00;102910.81;5031474;28;20048;-72
2023/01/21 06:49:48;;;;;;;67.43;22.30;;;;;;;-4.07;100.00;102914.31;5029477;28;20041;-72
2023/01/21 06:52:13;;;;;;;66.32;21.98;;;;;;;-4.09;100.00;102916.03;5031025;28;20040;-76
2023/01/21 06:54:39;;;;;;;67.65;21.88;;;;;;;-4.13;100.00;102928.38;5013792;28;20500;-72
2023/01/21 06:57:04;;;;;;;58.42;19.67;;;;;;;-4.19;100.00;102930.91;5030987;28;20129;-73
2023/01/21 06:59:29;;;;;;;60.55;19.98;;;;;;;-4.23;100.00;102930.81;5029432;28;20123;-72
2023/01/21 07:01:57;;;;;;;63.92;22.42;;;;;;;-4.27;100.00;102929.81;5029106;28;20028;-73
2023/01/21 07:04:24;;;;;;;54.35;19.17;;;;;;;-4.27;100.00;102937.78;5030424;28;20041;-73
2023/01/21 07:06:50;;;;;;;56.47;21.10;;;;;;;-4.23;100.00;102944.09;5035932;28;20048;-73
2023/01/21 07:09:16;;;;;;;69.30;21.83;;;;;;;-4.16;100.00;102954.88;5032553;28;20562;-73
2023/01/21 07:11:41;;;;;;;68.13;21.08;;;;;;;-4.13;100.00;102943.41;5049686;28;20032;-73
2023/01/21 07:14:06;;;;;;;61.70;19.13;;;;;;;-4.14;100.00;102946.94;5012894;28;20041;-73
2023/01/21 07:16:32;;;;;;;59.67;20.13;;;;;;;-4.15;100.00;102945.13;5029057;28;20401;-73
2023/01/21 07:18:57;;;;;;;61.42;20.25;;;;;;;-4.12;100.00;102953.19;5029139;28;20044;-73
2023/01/21 07:21:25;;;;;;;62.92;20.77;;;;;;;-4.12;100.00;102958.50;5029037;28;20061;-73
2023/01/21 07:23:52;;;;;;;68.70;21.80;;;;;;;-4.14;100.00;102957.56;5030576;28;20025;-73
2023/01/21 07:26:17;;;;;;;71.78;22.38;;;;;;;-4.14;100.00;102961.13;5029770;28;20034;-72
2023/01/21 07:28:43;;;;;;;58.78;19.90;;;;;;;-4.12;100.00;102967.34;5029635;28;20386;-75
2023/01/21 07:31:08;;;;;;;65.07;20.90;;;;;;;-4.14;100.00;102962.88;5029499;28;20519;-74
2023/01/21 07:33:34;;;;;;;69.82;22.70;;;;;;;-4.09;100.00;102970.97;5029417;28;20036;-73
2023/01/21 07:35:59;;;;;;;64.22;21.67;;;;;;;-4.12;100.00;102977.09;5028370;28;20033;-73
2023/01/21 07:38:24;;;;;;;66.28;20.45;;;;;;;-4.17;100.00;102981.41;5030806;28;20073;-73
2023/01/21 07:40:50;;;;;;;61.00;22.38;;;;;;;-4.22;100.00;102986.63;5028802;28;20485;-73
2023/01/21 07:43:16;;;;;;;64.45;21.58;;;;;;;-4.21;100.00;102995.50;5030437;28;20061;-74
2023/01/21 07:45:41;;;;;;;59.95;20.35;;;;;;;-4.15;100.00;103003.59;5030752;28;20048;-73
2023/01/21 07:48:07;;;;;;;58.28;22.38;;;;;;;-4.12;100.00;103003.66;5028954;28;20035;-74
2023/01/21 07:50:33;;;;;;;64.82;22.15;;;;;;;-4.13;100.00;103004.53;5028552;28;20045;-74
2023/01/21 07:52:58;;;;;;;68.93;22.58;;;;;;;-3.99;100.00;103010.16;5037686;28;20040;-74
2023/01/21 07:55:25;;;;;;;51.35;16.67;;;;;;;-3.88;100.00;103011.28;5049509;28;20107;-75
2023/01/21 07:57:50;;;;;;;77.90;23.67;;;;;;;-3.79;100.00;103015.91;5029301;28;20038;-73
2023/01/21 08:00:16;;;;;;;71.45;21.50;;;;;;;-3.72;100.00;103020.53;5029758;28;20511;-73
2023/01/21 08:02:42;;;;;;;81.18;25.35;;;;;;;-3.62;100.00;103031.38;5030257;28;20029;-76
2023/01/21 08:05:08;;;;;;;77.53;24.75;;;;;;;-3.51;100.00;103031.59;5029722;28;20044;-76
2023/01/21 08:07:34;;;;;;;89.60;25.55;;;;;;;-3.48;100.00;103036.09;5029999;28;20121;-73
2023/01/21 08:09:59;;;;;;;75.53;21.52;;;;;;;-3.41;100.00;103032.69;5029739;28;20561;-74
2023/01/21 08:12:25;;;;;;;78.40;24.58;;;;;;;-3.34;100.00;103039.94;5030677;28;20041;-74
2023/01/21 08:14:50;;;;;;;81.25;23.63;;;;;;;-3.31;100.00;103053.31;5049409;28;20151;-74
2023/01/21 08:17:16;;;;;;;81.65;24.45;;;;;;;-3.25;100.00;103063.19;5045569;28;20124;-74
2023/01/21 08:19:41;;;;;;;88.07;26.10;;;;;;;-3.20;100.00;103058.84;5049701;28;20036;-74
2023/01/21 08:22:06;;;;;;;85.55;27.25;;;;;;;-3.17;100.00;103065.13;5047616;28;20098;-73
2023/01/21 08:24:32;;;;;;;93.93;26.45;;;;;;;-3.10;100.00;103067.03;5049239;28;20438;-74
2023/01/21 08:26:59;;;;;;;84.85;23.75;;;;;;;-3.04;100.00;103078.66;5039861;28;20032;-74
2023/01/21 08:29:25;;;;;;;81.35;24.95;;;;;;;-2.98;100.00;103078.81;5029122;28;20048;-73
2023/01/21 08:31:51;;;;;;;87.25;24.98;;;;;;;-2.95;100.00;103085.06;5028930;28;20029;-74
2023/01/21 08:34:17;;;;;;;90.68;27.77;;;;;;;-2.92;100.00;103085.13;5027756;28;20041;-74
2023/01/21 08:36:42;;;;;;;90.28;27.35;;;;;;;-2.90;100.00;103088.72;5029100;28;20095;-74
2023/01/21 08:39:08;;;;;;;93.10;28.52;;;;;;;-2.83;100.00;103092.41;5028911;28;20055;-75
2023/01/21 08:41:33;;;;;;;72.53;24.17;;;;;;;-2.80;100.00;103092.44;5044337;28;20256;-76
2023/01/21 08:43:59;;;;;;;80.90;25.23;;;;;;;-2.77;100.00;103103.16;5029157;28;20053;-75
2023/01/21 08:46:24;;;;;;;85.00;27.45;;;;;;;-2.75;100.00;103098.78;5028120;28;20515;-74
2023/01/21 08:48:50;;;;;;;99.07;29.02;;;;;;;-2.73;100.00;103099.69;5028601;28;20103;-75
2023/01/21 08:51:16;;;;;;;49.58;16.92;;;;;;;-2.66;100.00;103114.94;5028539;28;20037;-75
2023/01/21 08:53:41;;;;;;;74.03;22.80;;;;;;;-2.65;100.00;103115.84;5041644;28;20041;-75
2023/01/21 08:56:07;;;;;;;88.75;26.38;;;;;;;-2.65;100.00;103107.84;5047226;28;20075;-75
2023/01/21 08:58:32;;;;;;;92.18;25.75;;;;;;;-2.61;100.00;103113.25;5048951;28;20052;-75
2023/01/21 09:01:04;;;;;;;84.25;26.38;;;;;;;-2.58;100.00;103112.41;5043509;28;20030;-74
2023/01/21 09:03:29;;;;;;;86.95;26.52;;;;;;;-2.53;100.00;103123.13;5029004;28;20029;-75
2023/01/21 09:05:59;;;;;;;89.03;27.00;;;;;;;-2.49;100.00;103122.31;5027584;28;20062;-75
2023/01/21 09:08:24;;;;;;;78.45;23.48;;;;;;;-2.46;100.00;103133.94;5036185;28;20033;-74
2023/01/21 09:11:02;;;;;;;81.25;25.48;;;;;;;-2.44;100.00;103129.53;5048342;28;20032;-74
2023/01/21 09:13:30;;;;;;;98.57;28.02;;;;;;;-2.40;100.00;103133.16;5047277;28;20094;-75
2023/01/21 09:15:55;;;;;;;91.50;25.33;;;;;;;-2.38;100.00;103135.00;5033448;28;20117;-74
2023/01/21 09:18:21;;;;;;;90.18;25.75;;;;;;;-2.33;100.00;103130.63;5027219;28;20374;-75
2023/01/21 09:20:46;;;;;;;89.78;26.48;;;;;;;-2.32;100.00;103131.53;5026982;28;20477;-75
2023/01/21 09:23:24;;;;;;;85.47;23.40;;;;;;;-2.30;100.00;103127.13;5028899;28;20529;-75
2023/01/21 09:25:59;;;;;;;84.05;25.90;;;;;;;-2.26;100.00;103128.97;5028235;28;20045;-75
2023/01/21 09:28:25;;;;;;;87.05;23.52;;;;;;;-2.25;100.00;103129.84;5048364;28;20040;-76
2023/01/21 09:30:59;;;;;;;61.63;19.33;;;;;;;-2.23;100.00;103139.69;5043733;28;20072;-75
2023/01/21 09:33:25;;;;;;;92.00;25.88;;;;;;;-2.25;100.00;103138.75;5027093;28;20511;-74
2023/01/21 09:35:53;;;;;;;91.03;22.52;;;;;;;-2.20;100.00;103146.81;5027254;28;20034;-75
2023/01/21 09:38:18;;;;;;;82.50;25.35;;;;;;;-2.19;100.00;103143.28;5027855;28;20541;-74
2023/01/21 09:40:44;;;;;;;69.00;20.25;;;;;;;-2.17;100.00;103150.44;5032037;28;20111;-77
2023/01/21 09:43:18;;;;;;;78.70;23.92;;;;;;;-2.15;100.00;103158.47;5048285;28;20051;-75
2023/01/21 09:45:45;;;;;;;94.43;26.35;;;;;;;-2.15;100.00;103158.47;5045133;28;20071;-77
2023/01/21 09:48:21;;;;;;;87.22;26.33;;;;;;;-2.14;100.00;103161.19;5026925;28;20124;-75
2023/01/21 09:50:49;;;;;;;77.70;24.25;;;;;;;-2.14;100.00;103165.63;5009087;28;20091;-74
2023/01/21 09:53:40;;;;;;;80.65;24.13;;;;;;;-2.09;100.00;103172.81;5035021;28;20484;-75
2023/01/21 09:56:15;;;;;;;82.90;24.55;;;;;;;-2.09;100.00;103183.50;5029927;28;20094;-74
2023/01/21 09:58:47;;;;;;;96.50;24.77;;;;;;;-2.06;100.00;103174.63;5048545;28;20033;-76
2023/01/21 10:01:29;;;;;;;81.07;21.48;;;;;;;-2.02;100.00;103183.59;5040130;28;20123;-74
2023/01/21 10:04:01;;;;;;;92.68;26.00;;;;;;;-2.04;100.00;103185.34;5026313;28;20042;-74
2023/01/21 10:06:45;;;;;;;88.28;26.30;;;;;;;-2.00;100.00;103190.75;5027632;28;20032;-75
2023/01/21 10:09:37;;;;;;;85.00;22.70;;;;;;;-1.94;100.00;103197.97;5027974;28;20041;-77
2023/01/21 10:12:15;;;;;;;78.00;22.90;;;;;;;-1.98;100.00;103198.78;5027934;28;20465;-75
2023/01/21 10:15:14;;;;;;;83.65;23.05;;;;;;;-1.93;100.00;103211.31;5027897;28;20029;-75
2023/01/21 10:17:49;;;;;;;61.40;19.52;;;;;;;-1.88;100.00;103204.28;5037249;28;20477;-74
2023/01/21 10:20:34;;;;;;;80.30;21.23;;;;;;;-1.86;100.00;103207.00;5025756;28;20573;-76
2023/01/21 10:23:21;;;;;;;74.07;23.60;;;;;;;-1.87;100.00;103211.41;5029422;28;20081;-74
2023/01/21 10:25:50;;;;;;;89.57;26.08;;;;;;;-1.83;100.00;103220.38;5031328;28;20120;-75
2023/01/21 10:28:24;;;;;;;89.72;24.73;;;;;;;-1.83;100.00;103207.91;5031377;28;20034;-75
2023/01/21 10:30:53;;;;;;;81.00;23.92;;;;;;;-1.78;100.00;103209.78;5029268;28;20489;-74
2023/01/21 10:33:24;;;;;;;80.93;24.52;;;;;;;-1.72;100.00;103204.56;5031403;28;20034;-74
2023/01/21 10:36:11;;;;;;;90.38;24.73;;;;;;;-1.66;100.00;103201.97;5028857;28;20808;-74
2023/01/21 10:38:48;;;;;;;83.65;23.77;;;;;;;-1.60;100.00;103202.97;5029567;28;20042;-75
2023/01/21 10:41:34;;;;;;;84.25;23.33;;;;;;;-1.56;100.00;103196.81;5049422;28;20033;-76
2023/01/21 10:44:15;;;;;;;76.78;23.38;;;;;;;-1.50;100.00;103197.75;5049388;28;20053;-75
2023/01/21 10:46:56;;;;;;;83.85;22.48;;;;;;;-1.48;100.00;103183.59;5041289;28;20087;-75
2023/01/21 10:49:22;;;;;;;89.00;23.67;;;;;;;-1.36;100.00;103188.19;5030590;28;20416;-75
2023/01/21 10:51:57;;;;;;;94.10;24.40;;;;;;;-1.26;100.00;103191.88;5030305;28;20045;-75
2023/01/21 10:54:43;;;;;;;71.63;22.13;;;;;;;-1.18;100.00;103193.78;5030618;28;20450;-75
2023/01/21 10:57:17;;;;;;;89.65;24.45;;;;;;;-1.12;100.00;103180.53;5030897;28;20029;-75
2023/01/21 10:59:43;;;;;;;80.65;22.27;;;;;;;-1.01;100.00;103185.13;5030745;28;20187;-77
2023/01/21 11:02:08;;;;;;;82.18;25.23;;;;;;;-0.88;100.00;103171.06;5030776;28;20536;-76
2023/01/21 11:04:36;;;;;;;72.13;22.02;;;;;;;-0.84;100.00;103179.13;5030366;28;20044;-75
2023/01/21 11:07:03;;;;;;;76.70;23.35;;;;;;;-0.74;100.00;103176.56;5029935;28;20438;-77
2023/01/21 11:09:34;;;;;;;80.18;22.40;;;;;;;-0.64;100.00;103184.69;5030314;28;20037;-76
2023/01/21 11:12:01;;;;;;;81.18;25.38;;;;;;;-0.57;100.00;103182.97;5043460;28;20481;-75
2023/01/21 11:14:27;;;;;;;88.10;23.70;;;;;;;-0.49;100.00;103178.63;5050397;28;20037;-75